East Hebron, New Hampshire
Current Conditions -  °F | °C
As of 1:15 PM on Thursday 18 Dec 2014 (Local Time) from K1P1 Reporting Station
Drizzle Drizzle  
Wind Chill: 27°   Ceiling: 2900
Heat Index: 36°   Visibility: 5mi
Dew Point: 33°   Wind: 14mph
Humidity: 90%   Direction: 290°WNW
Pressure: 29.74"   Gusts: 25mph
Location:  43.69°N, 71.77°W
Report Text: K1P1 181815Z AUTO 29012G22KT 5SM -DZ OVC029 02/01 A2974 RMK AO2 T00200005
Loading
Personal Weather Stations






























Interactive Weather Map New forecast layout! Learn more

10-Day Weather Forecast

Advertisements
Track Severe Weather on mobile